hwlogo.jpg (8581 bytes)
Home Your Weather Products Services Weather On Your Site Contact
HW Version Logo
Weather Info
Your Weather (Options)
Canadian Weather
International Weather
Enter your " Place, State", US Zip Code or ICAO:  
Forecast Information Radar Information
Hull Gatineau, Québec, Canada  Lat: 45.50N, Lon: 75.55W
ICAO Used: CYGP
Current Conditions
Updated: 10:00 AM EST TUE FEB 20 2018
Sun & Moon Information
Mostly Cloudy
Mostly Cloudy
Temp: -3°C
Humidity: 63%
Wind Speed: N 9 MPH
Barometer: 1030 mb
Dewpoint: -9°C
Heat Index: -3°C
Wind Chill: -8°C
Civil Twilight: 6:26 AM EST Moon Phase:
Waxing Crescent Moon
Sunrise: 6:56 AM EST
Sunset: 5:34 PM EST
Civil Twilight: 6:04 PM EST
Forecast for Hull Gatineau, QC:
(Forecast based on TAF for )
0700 PM EST TUE FEB 20 2018
  
MORNING AFTERNOON EVENING
Fair Fair Overcast
ZoneCast:
Dated: 0700 PM EST TUE FEB 20 2018
Morning...Becoming fair with winds from the northeast at 9 mph.

Afternoon...Fair with winds from the northeast at 9 mph. Turning overcast with winds from the northeast at 9 mph.

Evening...Overcast with winds from the northeast at 9 mph.

Original Encoded TAF:
Dated: 0700 PM EST TUE FEB 20 2018
2018/02/20 15:00
TAF 
      AMD CYGP 201503Z 2015/2102 36008KT P6SM FEW020 BKN130 
      TEMPO 2015/2018 BKN020 OVC120 
      BECMG 2015/2017 04008KT 
     FM201800 04008KT P6SM OVC030 
      TEMPO 2018/2024 OVC020 
     FM210000 07008KT P6SM OVC030 
      TEMPO 2100/2102 5SM -SN OVC015 
      RMK NXT FCST BY 202000Z